Time;durP1;ratioP1;P1;durP2;ratioP2;P2;SDS_P1;SDS_P2;PMS_P1;PMS_P2;Temp;Humidity;BMP_temperature;BMP_pressure;BME280_temperature;BME280_humidity;BME280_pressure;Samples;Min_cycle;Max_cycle;Signal;HPM_P1;HPM_P2
2023/05/03 00:01:36;;;;;;;1.63;0.63;;;;;;;16.19;40.87;103060.03;5048607;28;20108;-68
2023/05/03 00:04:02;;;;;;;1.00;0.80;;;;;;;15.61;41.91;103051.03;5050348;28;20536;-67
2023/05/03 00:06:28;;;;;;;1.00;0.90;;;;;;;15.96;41.46;103052.94;5049421;28;20025;-69
2023/05/03 00:08:53;;;;;;;1.50;0.83;;;;;;;15.89;41.60;103051.16;5041281;28;20048;-67
2023/05/03 00:11:18;;;;;;;1.10;0.90;;;;;;;15.87;41.58;103048.53;5043839;28;20048;-68
2023/05/03 00:13:44;;;;;;;1.27;0.90;;;;;;;15.77;41.79;103051.97;5055104;28;20030;-69
2023/05/03 00:16:10;;;;;;;3.30;0.90;;;;;;;15.61;43.28;103040.50;5054739;28;20040;-70
2023/05/03 00:18:35;;;;;;;1.07;0.80;;;;;;;15.89;42.21;103046.75;5051727;28;20107;-70
2023/05/03 00:21:01;;;;;;;2.17;0.80;;;;;;;15.49;42.97;103051.84;5051932;28;20465;-70
2023/05/03 00:23:27;;;;;;;1.13;1.00;;;;;;;15.56;43.42;103042.22;5056756;28;20025;-70
2023/05/03 00:25:57;;;;;;;3.67;0.87;;;;;;;15.56;42.35;103045.72;5071156;28;20473;-69
2023/05/03 00:28:24;;;;;;;1.27;0.87;;;;;;;15.56;41.65;103040.47;5036068;28;20140;-70
2023/05/03 00:30:49;;;;;;;0.90;0.80;;;;;;;15.76;42.46;103039.69;5050834;28;20025;-69
2023/05/03 00:33:15;;;;;;;1.23;1.00;;;;;;;14.82;43.59;103036.53;5052941;28;20028;-68
2023/05/03 00:35:41;;;;;;;1.10;0.70;;;;;;;14.74;43.00;103034.75;5036564;28;20086;-70
2023/05/03 00:38:06;;;;;;;6.27;1.20;;;;;;;15.30;42.68;103028.94;5045744;28;20018;-70
2023/05/03 00:40:32;;;;;;;1.80;0.97;;;;;;;15.60;41.56;103038.72;5030700;28;20512;-69
2023/05/03 00:42:57;;;;;;;1.10;0.90;;;;;;;15.47;42.66;103042.19;5032594;28;20022;-70
2023/05/03 00:45:22;;;;;;;1.57;0.80;;;;;;;15.36;42.22;103035.13;5031854;28;20221;-69
2023/05/03 00:47:48;;;;;;;4.57;1.00;;;;;;;15.43;41.45;103034.28;5030270;28;20024;-69
2023/05/03 00:50:14;;;;;;;1.07;0.97;;;;;;;15.55;41.45;103029.91;5047660;28;20119;-69
2023/05/03 00:52:39;;;;;;;1.00;0.80;;;;;;;15.63;41.71;103041.38;5033071;28;21269;-69
2023/05/03 00:55:06;;;;;;;2.17;0.80;;;;;;;15.84;40.72;103035.34;5057753;28;20099;-70
2023/05/03 00:57:32;;;;;;;2.60;0.70;;;;;;;15.95;40.70;103043.28;5044434;28;20024;-69
2023/05/03 01:00:00;;;;;;;2.67;1.17;;;;;;;15.51;41.07;103044.84;5050222;28;20032;-69
2023/05/03 01:02:26;;;;;;;1.20;1.10;;;;;;;15.67;41.71;103045.78;5033933;28;20378;-70
2023/05/03 01:04:54;;;;;;;1.37;1.00;;;;;;;15.39;41.21;103040.41;5046233;28;20025;-69
2023/05/03 01:07:47;;;;;;;1.10;1.00;;;;;;;15.38;41.37;103049.16;5049061;28;20025;-69
2023/05/03 01:10:12;;;;;;;1.33;1.02;;;;;;;15.60;41.01;103044.00;5037101;28;20363;-69
2023/05/03 01:12:54;;;;;;;1.03;0.97;;;;;;;15.36;41.48;103040.38;5049483;28;20044;-69
2023/05/03 01:15:58;;;;;;;4.60;0.87;;;;;;;15.35;41.32;103043.03;5050341;28;20115;-70
2023/05/03 01:18:31;;;;;;;3.87;0.90;;;;;;;15.63;41.22;103049.28;5047361;28;20224;-69
2023/05/03 01:20:58;;;;;;;3.13;1.10;;;;;;;15.64;41.17;103040.50;5049530;28;20052;-70
2023/05/03 01:23:33;;;;;;;0.83;0.67;;;;;;;15.35;41.92;103038.63;5049609;28;20024;-70
2023/05/03 01:25:58;;;;;;;0.73;0.67;;;;;;;15.52;41.76;103045.72;5029370;28;20028;-70
2023/05/03 01:28:24;;;;;;;1.77;0.80;;;;;;;14.63;42.64;103049.56;5039068;28;20501;-69
2023/05/03 01:30:51;;;;;;;3.43;1.00;;;;;;;15.01;42.23;103041.06;5031130;28;20041;-69
2023/05/03 01:33:24;;;;;;;2.87;1.07;;;;;;;14.94;41.83;103041.88;5042840;28;20078;-69
2023/05/03 01:35:56;;;;;;;3.37;0.90;;;;;;;15.29;41.49;103043.88;5049850;28;20119;-69
2023/05/03 01:38:22;;;;;;;1.45;0.90;;;;;;;14.48;43.01;103038.84;5044794;28;20084;-70
2023/05/03 01:40:51;;;;;;;0.77;0.77;;;;;;;14.21;43.77;103037.75;5048306;28;20079;-69
2023/05/03 01:43:18;;;;;;;1.20;0.77;;;;;;;14.73;43.21;103032.97;5045194;28;20028;-69
2023/05/03 01:45:44;;;;;;;0.80;0.80;;;;;;;15.27;41.63;103028.03;5036357;28;20382;-69
2023/05/03 01:48:19;;;;;;;0.70;0.70;;;;;;;14.92;41.88;103023.44;5046303;28;20102;-70
2023/05/03 01:50:44;;;;;;;3.20;1.00;;;;;;;14.52;42.88;103028.41;5050872;28;20021;-69
2023/05/03 01:53:10;;;;;;;1.33;1.03;;;;;;;14.51;43.12;103028.38;5049286;28;20410;-70
2023/05/03 01:55:36;;;;;;;0.70;0.70;;;;;;;14.67;43.33;103017.16;5048046;28;20071;-69
2023/05/03 01:58:01;;;;;;;0.77;0.70;;;;;;;14.56;42.78;103013.50;5054609;28;20063;-70
2023/05/03 02:00:27;;;;;;;0.80;0.80;;;;;;;14.29;43.37;103007.13;5046736;28;20104;-68
2023/05/03 02:02:52;;;;;;;2.20;1.30;;;;;;;14.62;42.88;102997.75;5048589;28;20554;-68
2023/05/03 02:05:17;;;;;;;0.70;0.70;;;;;;;14.23;44.33;102993.91;5048483;28;20024;-68
2023/05/03 02:07:43;;;;;;;0.97;0.80;;;;;;;13.98;44.32;102983.16;5045804;28;20029;-68
2023/05/03 02:10:13;;;;;;;1.30;1.00;;;;;;;14.18;44.62;102985.13;5041515;28;20022;-68
2023/05/03 02:12:41;;;;;;;1.90;0.80;;;;;;;14.06;44.33;102970.97;5047469;28;20056;-68
2023/05/03 02:15:07;;;;;;;5.53;1.00;;;;;;;14.05;44.64;102977.13;5055785;28;20059;-68
2023/05/03 02:17:33;;;;;;;3.23;1.03;;;;;;;14.17;44.67;102965.81;5048318;28;20384;-68
2023/05/03 02:19:59;;;;;;;2.40;1.10;;;;;;;14.90;43.13;102969.88;5029766;28;20029;-68
2023/05/03 02:22:24;;;;;;;1.17;0.80;;;;;;;14.40;43.65;102973.91;5038243;28;20024;-68
2023/05/03 02:24:50;;;;;;;1.97;1.03;;;;;;;14.91;42.87;102973.41;5068625;28;20029;-68
2023/05/03 02:27:16;;;;;;;4.40;1.00;;;;;;;14.05;44.21;102990.28;5038604;28;20484;-68
2023/05/03 02:29:41;;;;;;;0.80;0.80;;;;;;;13.85;45.06;103007.59;5053783;28;20064;-68
2023/05/03 02:32:07;;;;;;;2.07;0.80;;;;;;;14.26;44.08;102991.34;5068205;28;20117;-68
2023/05/03 02:34:32;;;;;;;3.63;1.10;;;;;;;14.37;44.38;102999.28;5064812;28;20027;-68
2023/05/03 02:36:58;;;;;;;1.47;0.97;;;;;;;14.46;43.85;103006.41;5052608;28;20025;-68
2023/05/03 02:39:23;;;;;;;2.90;0.97;;;;;;;14.07;44.40;102999.03;5041809;28;20017;-68
2023/05/03 02:41:48;;;;;;;3.27;1.37;;;;;;;13.94;44.89;103012.06;5068017;28;20125;-69
2023/05/03 02:44:14;;;;;;;3.57;3.10;;;;;;;13.84;45.16;103021.59;5031170;28;20018;-69
2023/05/03 02:46:40;;;;;;;3.90;1.57;;;;;;;13.98;44.79;103025.22;5029708;28;20041;-68
2023/05/03 02:49:07;;;;;;;0.90;0.90;;;;;;;13.76;44.78;103031.13;5034038;28;20500;-68
2023/05/03 02:51:32;;;;;;;1.33;1.00;;;;;;;13.44;45.83;103021.13;5054691;28;20028;-68
2023/05/03 02:53:57;;;;;;;2.13;1.47;;;;;;;13.57;44.93;103023.91;5038686;28;20056;-68
2023/05/03 02:56:25;;;;;;;1.87;1.20;;;;;;;13.69;44.83;103024.91;5052105;28;20481;-68
2023/05/03 02:58:51;;;;;;;2.37;1.20;;;;;;;14.05;43.72;103013.94;5044782;28;20121;-68
2023/05/03 03:01:16;;;;;;;1.20;1.10;;;;;;;13.69;44.41;103017.03;5045173;28;20103;-68
2023/05/03 03:03:41;;;;;;;2.17;1.20;;;;;;;13.74;44.75;103015.34;5044177;28;20520;-67
2023/05/03 03:06:07;;;;;;;1.33;1.10;;;;;;;13.38;44.49;103017.53;5032028;28;20163;-69
2023/05/03 03:08:32;;;;;;;2.03;1.20;;;;;;;13.44;45.11;103008.84;5038486;28;20057;-68
2023/05/03 03:10:58;;;;;;;1.97;0.90;;;;;;;13.56;44.40;103010.75;5059328;28;20040;-68
2023/05/03 03:13:23;;;;;;;3.10;1.53;;;;;;;13.32;44.88;103022.66;5046412;28;20136;-68
2023/05/03 03:15:48;;;;;;;1.03;0.87;;;;;;;14.20;43.67;103021.06;5039156;28;20036;-68
2023/05/03 03:18:14;;;;;;;1.00;0.90;;;;;;;13.69;43.54;103030.19;5045744;28;20067;-68
2023/05/03 03:20:39;;;;;;;0.90;0.90;;;;;;;13.45;44.10;103030.75;5048177;28;20488;-68
2023/05/03 03:23:05;;;;;;;1.47;0.97;;;;;;;13.79;44.02;103025.91;5048688;28;20032;-68
2023/05/03 03:25:30;;;;;;;1.30;1.00;;;;;;;13.76;44.00;103028.50;5050728;28;20551;-68
2023/05/03 03:27:55;;;;;;;1.83;1.13;;;;;;;14.34;42.69;103023.84;5039196;28;20036;-67
2023/05/03 03:30:21;;;;;;;1.27;0.80;;;;;;;13.71;44.08;103036.31;5050354;28;20028;-68
2023/05/03 03:32:46;;;;;;;1.43;1.00;;;;;;;13.40;43.94;103026.31;5044400;28;20103;-68
2023/05/03 03:35:13;;;;;;;2.03;1.00;;;;;;;13.24;43.75;103030.47;5035798;28;20116;-69
2023/05/03 03:37:39;;;;;;;2.63;1.00;;;;;;;13.83;43.10;103030.34;5047913;28;20028;-68
2023/05/03 03:40:07;;;;;;;1.90;0.90;;;;;;;14.12;42.54;103013.97;5038215;28;20032;-69
2023/05/03 03:42:32;;;;;;;6.13;1.07;;;;;;;14.48;41.69;103012.53;5034994;28;20032;-68
2023/05/03 03:44:57;;;;;;;1.40;1.30;;;;;;;13.84;42.80;103021.59;5051721;28;20029;-68
2023/05/03 03:47:23;;;;;;;0.90;0.80;;;;;;;14.21;42.76;103025.47;5041710;28;20029;-68
2023/05/03 03:49:48;;;;;;;2.80;1.17;;;;;;;13.60;42.95;103033.59;5055941;28;20054;-68
2023/05/03 03:52:13;;;;;;;1.13;0.97;;;;;;;13.65;43.22;103033.63;5051979;28;20021;-68
2023/05/03 03:54:39;;;;;;;5.20;0.90;;;;;;;13.87;43.13;103032.13;5045424;28;20102;-68
2023/05/03 03:57:04;;;;;;;2.13;1.10;;;;;;;14.07;42.46;103025.34;5042102;28;20031;-68
2023/05/03 03:59:30;;;;;;;0.80;0.60;;;;;;;13.46;43.20;103035.13;5044267;28;20041;-68
2023/05/03 04:01:55;;;;;;;0.90;0.80;;;;;;;13.21;44.31;103045.28;5042906;28;20619;-68
2023/05/03 04:04:21;;;;;;;0.93;0.93;;;;;;;13.44;43.67;103053.50;5049675;28;20025;-68
2023/05/03 04:06:46;;;;;;;0.93;0.83;;;;;;;13.80;42.53;103056.59;5043123;28;20136;-68
2023/05/03 04:09:12;;;;;;;1.33;1.03;;;;;;;13.61;42.79;103055.47;5049269;28;20047;-68
2023/05/03 04:11:38;;;;;;;6.73;1.20;;;;;;;13.75;42.69;103064.41;5049791;28;20028;-68
2023/05/03 04:14:04;;;;;;;1.40;1.10;;;;;;;13.03;43.59;103056.41;5035234;28;20084;-68
2023/05/03 04:16:29;;;;;;;0.80;0.67;;;;;;;13.66;42.63;103065.19;5049759;28;20116;-68
2023/05/03 04:18:54;;;;;;;3.07;1.63;;;;;;;14.38;42.50;103065.13;5052509;28;20524;-68
2023/05/03 04:21:20;;;;;;;2.73;0.90;;;;;;;14.48;41.77;103062.53;5064013;28;20121;-68
2023/05/03 04:23:45;;;;;;;1.27;1.00;;;;;;;14.02;41.75;103069.09;5051185;28;20060;-69
2023/05/03 04:26:11;;;;;;;1.43;1.00;;;;;;;14.35;41.61;103067.69;5048542;28;20041;-68
2023/05/03 04:28:37;;;;;;;1.90;0.90;;;;;;;14.21;41.82;103064.06;5049827;28;20048;-69
2023/05/03 04:31:04;;;;;;;1.67;1.00;;;;;;;13.67;42.90;103060.78;5065612;28;20567;-68
2023/05/03 04:33:30;;;;;;;0.70;0.70;;;;;;;14.06;42.73;103068.28;5050062;28;20398;-68
2023/05/03 04:35:55;;;;;;;1.20;1.00;;;;;;;14.19;41.27;103061.41;5030274;28;20029;-68
2023/05/03 04:38:21;;;;;;;1.73;0.80;;;;;;;14.31;41.51;103055.38;5045610;28;20040;-68
2023/05/03 04:40:46;;;;;;;0.70;0.70;;;;;;;13.95;42.19;103055.88;5061297;28;20029;-68
2023/05/03 04:43:12;;;;;;;0.80;0.80;;;;;;;14.46;41.55;103053.75;5031101;28;20120;-68
2023/05/03 04:45:38;;;;;;;1.50;1.40;;;;;;;14.10;41.59;103055.19;5032272;28;20029;-67
2023/05/03 04:48:04;;;;;;;3.63;1.03;;;;;;;14.65;40.96;103054.84;5033149;28;20116;-68
2023/05/03 04:50:30;;;;;;;1.60;1.10;;;;;;;14.14;41.91;103054.34;5048364;28;20107;-68
2023/05/03 04:52:55;;;;;;;2.30;0.70;;;;;;;13.97;42.00;103060.31;5044178;28;20060;-68
2023/05/03 04:55:21;;;;;;;2.27;1.07;;;;;;;13.72;42.62;103060.00;5030479;28;20033;-68
2023/05/03 04:57:46;;;;;;;2.10;0.93;;;;;;;13.89;42.62;103059.34;5039137;28;20547;-68
2023/05/03 05:00:12;;;;;;;3.13;1.07;;;;;;;13.99;42.04;103055.06;5051579;28;20544;-69
2023/05/03 05:02:38;;;;;;;0.87;0.80;;;;;;;13.63;42.82;103057.25;5029524;28;20056;-68
2023/05/03 05:05:04;;;;;;;1.53;1.00;;;;;;;14.21;42.07;103059.66;5036559;28;20063;-69
2023/05/03 05:07:29;;;;;;;2.33;0.87;;;;;;;14.08;42.27;103063.03;5039225;28;20440;-68
2023/05/03 05:09:55;;;;;;;1.27;1.17;;;;;;;13.72;42.76;103065.28;5054974;28;20033;-69
2023/05/03 05:12:20;;;;;;;1.17;1.00;;;;;;;13.83;42.99;103067.13;5038244;28;20503;-69
2023/05/03 05:14:45;;;;;;;1.00;0.90;;;;;;;13.94;42.44;103064.63;5040221;28;20057;-68
2023/05/03 05:17:11;;;;;;;1.03;0.87;;;;;;;13.98;41.98;103072.56;5028846;28;20197;-69
2023/05/03 05:19:36;;;;;;;4.97;1.57;;;;;;;14.32;41.28;103067.66;5044802;28;20032;-69
2023/05/03 05:22:02;;;;;;;1.10;0.87;;;;;;;14.19;41.61;103073.66;5046368;28;20485;-69
2023/05/03 05:24:27;;;;;;;0.90;0.80;;;;;;;13.91;41.75;103073.38;5046770;28;20020;-68
2023/05/03 05:26:52;;;;;;;1.70;0.80;;;;;;;13.58;42.31;103072.09;5049664;28;20024;-69
2023/05/03 05:29:18;;;;;;;1.63;1.10;;;;;;;13.37;43.02;103070.94;5049899;28;20025;-69
2023/05/03 05:31:43;;;;;;;1.33;0.80;;;;;;;13.79;42.14;103070.59;5042488;28;20172;-68
2023/05/03 05:34:08;;;;;;;5.40;1.03;;;;;;;13.52;42.41;103072.03;5036487;28;20100;-68
2023/05/03 05:36:34;;;;;;;2.27;1.23;;;;;;;13.60;43.03;103070.38;5049581;28;20025;-68
2023/05/03 05:38:59;;;;;;;1.23;0.87;;;;;;;13.90;41.92;103082.09;5055591;28;20496;-69
2023/05/03 05:41:25;;;;;;;1.10;1.00;;;;;;;14.12;41.40;103079.72;5030648;28;20575;-69
2023/05/03 05:43:50;;;;;;;1.27;1.13;;;;;;;13.63;42.13;103086.16;5038572;28;20079;-69
2023/05/03 05:46:16;;;;;;;1.63;1.00;;;;;;;13.76;41.93;103091.59;5048388;28;20070;-68
2023/05/03 05:48:42;;;;;;;1.20;0.90;;;;;;;13.87;41.57;103085.56;5052220;28;20021;-69
2023/05/03 05:51:08;;;;;;;2.93;0.83;;;;;;;13.40;41.93;103089.34;5049157;28;20020;-69
2023/05/03 05:53:33;;;;;;;1.27;0.73;;;;;;;14.35;40.85;103091.38;5034659;28;20440;-68
2023/05/03 05:55:58;;;;;;;3.37;0.90;;;;;;;14.07;41.11;103085.81;5038392;28;20111;-68
2023/05/03 05:58:24;;;;;;;2.93;0.87;;;;;;;15.18;39.43;103087.69;5048536;28;20021;-69
2023/05/03 06:00:50;;;;;;;1.20;1.10;;;;;;;14.37;40.20;103087.03;5050647;28;20033;-68
2023/05/03 06:03:15;;;;;;;1.10;1.00;;;;;;;14.47;41.04;103081.84;5034275;28;20068;-69
2023/05/03 06:05:41;;;;;;;1.10;0.90;;;;;;;14.10;40.83;103090.22;5036436;28;20036;-68
2023/05/03 06:08:07;;;;;;;1.17;0.93;;;;;;;13.89;41.82;103088.25;5042611;28;20094;-69
2023/05/03 06:10:32;;;;;;;1.83;1.00;;;;;;;15.03;39.51;103076.19;5050348;28;20484;-69
2023/05/03 06:12:58;;;;;;;3.63;1.43;;;;;;;15.13;39.31;103065.72;5056673;28;20032;-69
2023/05/03 06:15:23;;;;;;;2.03;0.97;;;;;;;14.55;40.35;103080.16;5069363;28;20724;-68
2023/05/03 06:17:49;;;;;;;5.40;1.13;;;;;;;14.99;40.42;103070.88;5051035;28;20055;-69
2023/05/03 06:20:15;;;;;;;5.10;1.20;;;;;;;14.71;40.74;103066.31;5041380;28;20017;-69
2023/05/03 06:22:40;;;;;;;1.27;1.10;;;;;;;15.33;40.23;103081.63;5048428;28;20417;-69
2023/05/03 06:25:06;;;;;;;0.97;0.97;;;;;;;15.52;39.42;103078.22;5048819;28;20028;-69
2023/05/03 06:27:32;;;;;;;1.00;0.97;;;;;;;14.75;40.54;103083.91;5048989;28;20108;-69
2023/05/03 06:29:57;;;;;;;2.97;1.10;;;;;;;15.91;39.27;103073.16;5047231;28;20017;-69
2023/05/03 06:32:23;;;;;;;2.63;0.90;;;;;;;16.34;38.07;103075.88;5040947;28;20040;-69
2023/05/03 06:34:48;;;;;;;5.10;0.90;;;;;;;14.74;40.27;103079.50;5049597;28;20048;-68
2023/05/03 06:37:14;;;;;;;1.17;0.97;;;;;;;15.13;40.71;103079.78;5028078;28;20025;-69
2023/05/03 06:39:40;;;;;;;1.43;1.00;;;;;;;15.64;40.25;103066.88;5029601;28;20029;-69
2023/05/03 06:42:06;;;;;;;1.77;0.80;;;;;;;15.36;39.39;103069.38;5028803;28;20035;-68
2023/05/03 06:44:32;;;;;;;4.23;0.90;;;;;;;14.28;40.59;103076.41;5057448;28;20052;-69
2023/05/03 06:46:57;;;;;;;1.90;0.70;;;;;;;14.40;40.89;103065.13;5057535;28;20056;-69
2023/05/03 06:49:22;;;;;;;1.53;0.97;;;;;;;14.12;41.27;103071.84;5031957;28;20293;-69
2023/05/03 06:51:48;;;;;;;0.63;0.60;;;;;;;14.31;40.98;103059.75;5028297;28;20083;-68
2023/05/03 06:54:14;;;;;;;1.60;0.80;;;;;;;15.86;39.11;103054.69;5027852;28;20049;-69
2023/05/03 06:56:39;;;;;;;0.70;0.70;;;;;;;17.98;34.71;103054.44;5030703;28;20029;-69
2023/05/03 06:59:04;;;;;;;1.77;1.10;;;;;;;19.26;32.15;103050.75;5029334;28;20079;-69
2023/05/03 07:01:31;;;;;;;1.63;0.80;;;;;;;19.34;31.71;103045.31;5033194;28;20040;-69
2023/05/03 07:03:56;;;;;;;0.87;0.57;;;;;;;21.82;29.49;103042.97;5038675;28;20477;-69
2023/05/03 07:06:23;;;;;;;3.13;0.80;;;;;;;23.02;27.36;103031.09;5027766;28;20076;-69
2023/05/03 07:08:52;;;;;;;4.50;0.80;;;;;;;23.57;27.33;103033.09;5046577;28;20493;-70
2023/05/03 07:11:22;;;;;;;1.02;1.00;;;;;;;24.23;25.89;103030.16;5041034;28;20035;-70
2023/05/03 07:13:51;;;;;;;0.73;0.50;;;;;;;24.77;24.93;103033.72;5043216;28;20033;-70
2023/05/03 07:16:17;;;;;;;1.17;0.55;;;;;;;23.87;25.34;103033.94;5050626;28;20654;-70
2023/05/03 07:18:43;;;;;;;0.40;0.35;;;;;;;24.54;24.97;103027.31;5045938;28;20047;-69
2023/05/03 07:21:08;;;;;;;2.85;0.52;;;;;;;24.48;24.39;103022.22;5049098;28;20021;-70
2023/05/03 07:23:34;;;;;;;9.60;1.77;;;;;;;24.93;23.70;103017.09;5047382;28;20024;-70
2023/05/03 07:25:59;;;;;;;0.82;0.63;;;;;;;24.91;23.95;103014.50;5055635;28;20082;-70
2023/05/03 07:28:25;;;;;;;1.10;0.40;;;;;;;26.50;22.60;103010.03;5041875;28;20087;-72
2023/05/03 07:30:51;;;;;;;1.55;0.50;;;;;;;25.39;23.44;103015.41;5026820;28;20036;-70
2023/05/03 07:33:16;;;;;;;0.45;0.45;;;;;;;25.09;23.14;103018.28;5027393;28;20048;-70
2023/05/03 07:35:45;;;;;;;2.20;0.50;;;;;;;25.74;22.55;103011.31;5045150;28;20025;-70
2023/05/03 07:38:10;;;;;;;0.47;0.47;;;;;;;24.53;23.07;103012.19;5037055;28;20038;-71
2023/05/03 07:40:35;;;;;;;2.20;0.50;;;;;;;24.94;22.80;103003.66;5041415;28;20046;-70
2023/05/03 07:43:01;;;;;;;1.67;0.50;;;;;;;24.45;23.45;103011.59;5050629;28;20066;-70
2023/05/03 07:45:27;;;;;;;0.40;0.38;;;;;;;25.62;22.55;102997.56;5045819;28;20025;-70
2023/05/03 07:47:53;;;;;;;1.70;0.30;;;;;;;25.85;22.59;102985.94;5043405;28;20029;-70
2023/05/03 07:50:18;;;;;;;1.95;0.40;;;;;;;25.18;22.58;102996.53;5047145;28;20112;-70
2023/05/03 07:52:44;;;;;;;1.00;0.40;;;;;;;25.96;22.14;102990.84;5047376;28;20460;-69
2023/05/03 07:55:09;;;;;;;0.57;0.57;;;;;;;25.85;22.64;102992.16;5036827;28;20030;-70
2023/05/03 07:57:35;;;;;;;0.45;0.40;;;;;;;27.22;20.80;102997.91;5040023;28;20485;-70
2023/05/03 08:00:01;;;;;;;1.20;0.30;;;;;;;24.68;23.36;103004.63;5030697;28;20073;-70
2023/05/03 08:02:26;;;;;;;0.93;0.70;;;;;;;25.99;22.59;103006.78;5031146;28;20076;-70
2023/05/03 08:04:53;;;;;;;0.30;0.30;;;;;;;26.52;21.89;103003.66;5036899;28;20477;-71
2023/05/03 08:07:19;;;;;;;0.95;0.40;;;;;;;26.44;22.29;103011.16;5058193;28;20442;-70
2023/05/03 08:09:44;;;;;;;2.05;0.60;;;;;;;27.74;21.05;103013.38;5050121;28;20035;-70
2023/05/03 08:12:10;;;;;;;0.57;0.40;;;;;;;27.74;20.53;103006.16;5051118;28;20033;-70
2023/05/03 08:14:36;;;;;;;1.45;0.55;;;;;;;26.52;22.04;102992.09;5047983;28;20496;-69
2023/05/03 08:17:03;;;;;;;2.22;0.63;;;;;;;26.29;22.33;102985.03;5046355;28;20116;-70
2023/05/03 08:19:29;;;;;;;0.60;0.60;;;;;;;26.23;22.09;102988.84;5043442;28;20496;-70
2023/05/03 08:21:54;;;;;;;0.40;0.40;;;;;;;26.22;21.59;102996.00;5047445;28;20056;-70
2023/05/03 08:24:20;;;;;;;2.10;0.50;;;;;;;27.22;21.40;102987.16;5048122;28;20028;-71
2023/05/03 08:26:47;;;;;;;1.50;0.60;;;;;;;28.40;20.80;102993.94;5043154;28;20033;-71
2023/05/03 08:29:13;;;;;;;4.78;1.88;;;;;;;27.37;20.60;102996.34;5049845;28;20049;-70
2023/05/03 08:31:38;;;;;;;0.60;0.60;;;;;;;27.90;20.80;102990.16;5051551;28;20461;-72
2023/05/03 08:34:05;;;;;;;0.60;0.60;;;;;;;28.18;19.43;102988.78;5048719;28;20032;-71
2023/05/03 08:36:31;;;;;;;0.85;0.60;;;;;;;29.23;19.16;102999.38;5036155;28;20508;-72
2023/05/03 08:38:57;;;;;;;0.30;0.30;;;;;;;28.41;20.55;102997.47;5037819;28;20078;-71
2023/05/03 08:41:29;;;;;;;3.20;0.38;;;;;;;28.74;19.43;103002.06;5030095;28;20055;-71
2023/05/03 08:43:55;;;;;;;5.82;0.52;;;;;;;27.89;19.07;103009.91;5049598;28;20036;-70
2023/05/03 08:46:21;;;;;;;0.85;0.52;;;;;;;28.14;20.29;103014.09;5046296;28;20027;-71
2023/05/03 08:48:48;;;;;;;0.77;0.60;;;;;;;27.18;19.67;103007.91;5034925;28;20037;-71
2023/05/03 08:51:16;;;;;;;0.95;0.50;;;;;;;26.03;20.85;103021.84;5048711;28;20029;-70
2023/05/03 08:53:42;;;;;;;0.98;0.70;;;;;;;26.12;20.73;103020.56;5051524;28;20057;-70
2023/05/03 08:56:09;;;;;;;1.80;1.02;;;;;;;26.66;20.51;103010.25;5051336;28;20036;-70
2023/05/03 08:58:35;;;;;;;0.73;0.50;;;;;;;27.50;20.73;103008.22;5058784;28;20021;-71
2023/05/03 09:01:05;;;;;;;2.35;0.57;;;;;;;28.18;19.75;103010.31;5052635;28;20400;-71
2023/05/03 09:03:31;;;;;;;2.40;0.55;;;;;;;27.92;18.97;103020.50;5069432;28;20123;-71
2023/05/03 09:06:00;;;;;;;4.25;0.50;;;;;;;28.04;19.53;103007.44;5054784;28;20119;-71
2023/05/03 09:08:27;;;;;;;0.57;0.52;;;;;;;28.77;19.95;103007.31;5048419;28;20526;-71
2023/05/03 09:10:52;;;;;;;0.50;0.50;;;;;;;29.73;19.04;103010.09;5049232;28;20052;-70
2023/05/03 09:13:18;;;;;;;1.08;0.95;;;;;;;30.52;18.54;103006.38;5049041;28;20504;-70
2023/05/03 09:15:52;;;;;;;1.40;0.60;;;;;;;29.45;18.27;103008.97;5042605;28;20029;-71
2023/05/03 09:18:18;;;;;;;4.07;0.88;;;;;;;27.41;19.54;103024.78;5051737;28;20020;-70
2023/05/03 09:20:51;;;;;;;0.60;0.60;;;;;;;29.00;19.09;103021.31;5044009;28;20436;-71
2023/05/03 09:23:26;;;;;;;0.82;0.80;;;;;;;28.77;19.12;103015.38;5034676;28;20392;-71
2023/05/03 09:25:52;;;;;;;1.50;0.80;;;;;;;27.29;19.81;103020.81;5045617;28;20036;-71
2023/05/03 09:28:18;;;;;;;1.63;0.70;;;;;;;28.46;19.81;103014.25;5051419;28;20028;-71
2023/05/03 09:30:46;;;;;;;0.98;0.70;;;;;;;28.57;18.71;103011.00;5048819;28;20059;-71
2023/05/03 09:33:19;;;;;;;1.73;0.98;;;;;;;28.07;19.61;103012.69;5048972;28;20108;-71
2023/05/03 09:36:04;;;;;;;0.50;0.50;;;;;;;28.38;20.60;103014.63;5056315;28;20042;-71
2023/05/03 09:38:35;;;;;;;1.00;0.90;;;;;;;28.78;20.18;103009.00;5047288;28;20032;-71
2023/05/03 09:41:02;;;;;;;1.27;0.77;;;;;;;27.90;19.74;103014.34;5051514;28;20052;-71
2023/05/03 09:43:28;;;;;;;0.70;0.70;;;;;;;27.75;20.74;103007.03;5042957;28;20052;-71
2023/05/03 09:46:07;;;;;;;1.02;0.60;;;;;;;27.65;20.33;103006.59;5047293;28;20017;-71
2023/05/03 09:48:33;;;;;;;0.88;0.70;;;;;;;27.91;20.21;103007.16;5030780;28;20038;-70
2023/05/03 09:50:58;;;;;;;0.88;0.80;;;;;;;26.81;20.16;103014.94;5032673;28;20029;-70
2023/05/03 09:53:26;;;;;;;1.60;0.85;;;;;;;27.31;20.32;103002.81;5038785;28;20057;-70
2023/05/03 09:55:52;;;;;;;0.82;0.75;;;;;;;27.02;20.67;103012.22;5053911;28;20033;-71
2023/05/03 09:58:17;;;;;;;1.33;0.70;;;;;;;25.86;22.34;103015.31;5037990;28;20029;-71
2023/05/03 10:00:45;;;;;;;2.80;0.85;;;;;;;25.29;22.25;103016.66;5034462;28;20539;-71
2023/05/03 10:03:17;;;;;;;1.10;0.90;;;;;;;23.43;24.24;103020.19;5050086;28;20028;-71
2023/05/03 10:05:46;;;;;;;1.50;1.40;;;;;;;25.31;23.00;103017.47;5051934;28;20028;-71
2023/05/03 10:08:31;;;;;;;1.38;1.27;;;;;;;25.18;23.35;103009.91;5045048;28;20021;-70
2023/05/03 10:10:56;;;;;;;1.35;1.10;;;;;;;25.49;22.89;103013.25;5050885;28;20024;-71
2023/05/03 10:13:22;;;;;;;0.98;0.80;;;;;;;25.49;23.41;103006.09;5048920;28;20017;-71
2023/05/03 10:15:55;;;;;;;1.10;1.00;;;;;;;25.43;22.64;103000.09;5051922;28;20480;-71
2023/05/03 10:18:26;;;;;;;2.13;0.90;;;;;;;27.15;21.43;102991.06;5049325;28;20100;-70
2023/05/03 10:21:01;;;;;;;1.02;0.73;;;;;;;28.80;20.31;102990.09;5047390;28;20121;-71
2023/05/03 10:23:26;;;;;;;0.90;0.90;;;;;;;27.33;21.17;102992.03;5038125;28;20029;-70
2023/05/03 10:26:12;;;;;;;1.38;0.80;;;;;;;28.22;19.71;102998.44;5037630;28;20028;-71
2023/05/03 10:28:38;;;;;;;0.70;0.60;;;;;;;28.27;19.35;102988.34;5039787;28;20025;-71
2023/05/03 10:31:26;;;;;;;3.17;0.90;;;;;;;28.63;19.57;102980.22;5030460;28;20042;-70
2023/05/03 10:33:51;;;;;;;2.30;0.82;;;;;;;28.35;19.77;102990.59;5040304;28;20122;-70
2023/05/03 10:36:17;;;;;;;1.33;0.90;;;;;;;28.00;20.61;102984.34;5053393;28;20092;-69
2023/05/03 10:38:42;;;;;;;0.70;0.70;;;;;;;28.89;20.63;102987.81;5059544;28;20033;-71
2023/05/03 10:41:08;;;;;;;2.13;1.10;;;;;;;28.20;19.55;102981.50;5047346;28;20059;-71
2023/05/03 10:43:33;;;;;;;2.95;1.08;;;;;;;27.16;20.34;102977.59;5043437;28;20120;-70
2023/05/03 10:46:00;;;;;;;1.02;0.70;;;;;;;28.96;19.99;102974.00;5043232;28;20016;-70
2023/05/03 10:48:27;;;;;;;1.40;1.00;;;;;;;28.25;20.08;102979.47;5033800;28;20515;-70
2023/05/03 10:50:54;;;;;;;0.93;0.90;;;;;;;28.11;19.63;102982.00;5049705;28;20033;-70
2023/05/03 10:53:35;;;;;;;1.50;0.90;;;;;;;27.73;20.73;102984.75;5048058;28;20040;-70
2023/05/03 10:56:09;;;;;;;1.67;0.87;;;;;;;29.80;19.26;102971.06;5048929;28;20408;-70
2023/05/03 10:58:37;;;;;;;1.10;0.95;;;;;;;29.27;19.13;102959.72;5034250;28;20299;-70
2023/05/03 11:01:07;;;;;;;1.80;1.13;;;;;;;28.76;20.55;102962.50;5041241;28;20466;-71
2023/05/03 11:04:01;;;;;;;1.60;1.20;;;;;;;27.38;21.29;102963.16;5049424;28;20397;-70
2023/05/03 11:06:28;;;;;;;1.10;1.00;;;;;;;26.82;20.96;102960.38;5047695;28;20465;-70
2023/05/03 11:08:53;;;;;;;4.32;0.90;;;;;;;28.46;20.18;102955.09;5046713;28;20041;-71
2023/05/03 11:11:20;;;;;;;1.08;0.80;;;;;;;27.01;20.20;102957.72;5046251;28;20031;-70
2023/05/03 11:13:46;;;;;;;1.48;1.08;;;;;;;27.90;20.60;102957.94;5047871;28;20408;-70
2023/05/03 11:16:12;;;;;;;2.42;0.88;;;;;;;27.52;20.58;102952.63;5048666;28;20120;-69
2023/05/03 11:18:37;;;;;;;4.78;1.20;;;;;;;28.52;18.92;102952.09;5050582;28;20096;-69
2023/05/03 11:21:03;;;;;;;3.33;1.05;;;;;;;28.68;20.55;102943.22;5047079;28;20052;-69
2023/05/03 11:23:28;;;;;;;2.40;0.95;;;;;;;28.96;19.48;102941.69;5047084;28;20122;-69